QFA671 YMML-YPAD
Flight info
| Callsign | QFA671 |
|---|---|
| Flight time | N/A |
| Altitude | 36000 |
| Route | ML H345 AD |
| Aircraft | B738/M-SDE2E3FGHIRWXY/LB1 |
Departure
| Time | 2026-05-06 18:39 |
|---|---|
| Airport | Melbourne Airport (YMML) |
Arrival
| Time | N/A |
|---|---|
| Airport | Adelaide International Airport (YPAD) |
| Time | Latitude | Longitude | Altitude | Speed | Heading |
|---|---|---|---|---|---|
| 2026-05-06 18:17 | -37.66760 | 144.84896 | 396 ft | 0 kts | 82° |
| 2026-05-06 18:32 | -37.66761 | 144.84893 | 398 ft | 3 kts | 82° |
| 2026-05-06 18:33 | -37.66765 | 144.84861 | 398 ft | 4 kts | 68° |
| 2026-05-06 18:33 | -37.66777 | 144.84840 | 398 ft | 4 kts | 1° |
| 2026-05-06 18:33 | -37.66775 | 144.84838 | 398 ft | 4 kts | 350° |
| 2026-05-06 18:33 | -37.66754 | 144.84833 | 397 ft | 4 kts | 346° |
| 2026-05-06 18:34 | -37.66729 | 144.84821 | 397 ft | 4 kts | 340° |
| 2026-05-06 18:34 | -37.66708 | 144.84814 | 399 ft | 0 kts | 348° |
| 2026-05-06 18:36 | -37.66692 | 144.84810 | 400 ft | 5 kts | 348° |
| 2026-05-06 18:37 | -37.66637 | 144.84796 | 400 ft | 11 kts | 353° |
| 2026-05-06 18:37 | -37.66579 | 144.84801 | 402 ft | 14 kts | 4° |
| 2026-05-06 18:37 | -37.66451 | 144.84777 | 405 ft | 14 kts | 2° |
| 2026-05-06 18:37 | -37.66359 | 144.84784 | 411 ft | 13 kts | 4° |
| 2026-05-06 18:38 | -37.66271 | 144.84791 | 412 ft | 13 kts | 3° |
| 2026-05-06 18:38 | -37.66221 | 144.84735 | 412 ft | 11 kts | 269° |
| 2026-05-06 18:38 | -37.66213 | 144.84565 | 412 ft | 46 kts | 274° |
| 2026-05-06 18:38 | -37.66171 | 144.83834 | 412 ft | 118 kts | 274° |
| 2026-05-06 18:39 | -37.66095 | 144.82559 | 512 ft | 166 kts | 274° |
| 2026-05-06 18:39 | -37.65993 | 144.81093 | 1287 ft | 169 kts | 275° |
| 2026-05-06 18:39 | -37.65895 | 144.79578 | 2007 ft | 180 kts | 275° |
| 2026-05-06 18:40 | -37.65048 | 144.76171 | 2660 ft | 223 kts | 290° |
| 2026-05-06 18:40 | -37.64454 | 144.74281 | 2969 ft | 242 kts | 289° |
| 2026-05-06 18:40 | -37.63832 | 144.72260 | 3588 ft | 251 kts | 288° |
| 2026-05-06 18:40 | -37.63202 | 144.70202 | 4506 ft | 252 kts | 288° |
| 2026-05-06 18:41 | -37.62569 | 144.68123 | 5360 ft | 255 kts | 288° |
| 2026-05-06 18:41 | -37.61931 | 144.66015 | 6168 ft | 259 kts | 287° |
| 2026-05-06 18:41 | -37.61287 | 144.63876 | 6958 ft | 263 kts | 287° |
| 2026-05-06 18:41 | -37.60636 | 144.61709 | 7729 ft | 266 kts | 287° |
| 2026-05-06 18:42 | -37.59976 | 144.59508 | 8470 ft | 271 kts | 287° |
| 2026-05-06 18:42 | -37.59308 | 144.57276 | 9257 ft | 273 kts | 287° |
| 2026-05-06 18:42 | -37.58646 | 144.55049 | 10019 ft | 276 kts | 287° |
| 2026-05-06 18:42 | -37.57957 | 144.52734 | 10504 ft | 292 kts | 288° |
| 2026-05-06 18:43 | -37.57215 | 144.50239 | 10723 ft | 314 kts | 288° |
| 2026-05-06 18:43 | -37.56433 | 144.47619 | 11277 ft | 323 kts | 288° |
| 2026-05-06 18:43 | -37.55638 | 144.44956 | 12027 ft | 326 kts | 288° |
| 2026-05-06 18:43 | -37.54837 | 144.42277 | 12840 ft | 327 kts | 288° |
| 2026-05-06 18:44 | -37.54302 | 144.40495 | 13341 ft | 329 kts | 288° |
| 2026-05-06 18:44 | -37.53478 | 144.37746 | 14069 ft | 333 kts | 288° |
| 2026-05-06 18:44 | -37.52663 | 144.35035 | 14786 ft | 337 kts | 288° |
| 2026-05-06 18:44 | -37.51825 | 144.32253 | 15513 ft | 341 kts | 288° |
| 2026-05-06 18:45 | -37.50980 | 144.29443 | 16241 ft | 344 kts | 288° |
| 2026-05-06 18:45 | -37.50126 | 144.26601 | 16968 ft | 348 kts | 289° |
| 2026-05-06 18:45 | -37.49264 | 144.23733 | 17658 ft | 351 kts | 289° |
| 2026-05-06 18:45 | -37.48397 | 144.20849 | 18339 ft | 355 kts | 289° |
| 2026-05-06 18:46 | -37.47513 | 144.17917 | 18987 ft | 359 kts | 289° |
| 2026-05-06 18:46 | -37.46622 | 144.14965 | 19628 ft | 363 kts | 289° |
| 2026-05-06 18:46 | -37.45735 | 144.12029 | 20258 ft | 366 kts | 289° |
| 2026-05-06 18:46 | -37.44825 | 144.09024 | 20869 ft | 369 kts | 289° |
| 2026-05-06 18:47 | -37.43905 | 144.05986 | 21452 ft | 373 kts | 289° |
| 2026-05-06 18:47 | -37.42976 | 144.02923 | 22019 ft | 376 kts | 289° |
| 2026-05-06 18:47 | -37.42041 | 143.99838 | 22564 ft | 380 kts | 289° |
| 2026-05-06 18:47 | -37.41093 | 143.96721 | 23113 ft | 383 kts | 288° |
| 2026-05-06 18:48 | -37.40137 | 143.93578 | 23563 ft | 388 kts | 288° |
| 2026-05-06 18:48 | -37.39165 | 143.90380 | 23990 ft | 393 kts | 288° |
| 2026-05-06 18:48 | -37.38182 | 143.87155 | 24506 ft | 396 kts | 288° |
| 2026-05-06 18:48 | -37.37191 | 143.83908 | 24984 ft | 398 kts | 288° |
| 2026-05-06 18:49 | -37.36205 | 143.80680 | 25424 ft | 402 kts | 288° |
| 2026-05-06 18:49 | -37.35197 | 143.77384 | 25877 ft | 404 kts | 288° |
| 2026-05-06 18:49 | -37.34192 | 143.74103 | 26293 ft | 407 kts | 288° |
| 2026-05-06 18:49 | -37.33170 | 143.70769 | 26710 ft | 410 kts | 288° |
| 2026-05-06 18:50 | -37.32139 | 143.67412 | 27129 ft | 413 kts | 288° |
| 2026-05-06 18:50 | -37.31101 | 143.64038 | 27518 ft | 416 kts | 288° |
| 2026-05-06 18:50 | -37.30053 | 143.60630 | 27901 ft | 419 kts | 288° |
| 2026-05-06 18:50 | -37.28997 | 143.57203 | 28284 ft | 421 kts | 288° |
| 2026-05-06 18:51 | -37.27937 | 143.53766 | 28640 ft | 424 kts | 288° |
| 2026-05-06 18:51 | -37.26870 | 143.50312 | 28982 ft | 426 kts | 288° |
| 2026-05-06 18:51 | -37.25793 | 143.46830 | 29313 ft | 429 kts | 288° |
| 2026-05-06 18:51 | -37.24725 | 143.43379 | 29648 ft | 431 kts | 288° |
| 2026-05-06 18:52 | -37.23635 | 143.39861 | 29994 ft | 433 kts | 288° |
| 2026-05-06 18:52 | -37.22542 | 143.36343 | 30403 ft | 433 kts | 288° |
| 2026-05-06 18:52 | -37.21428 | 143.32828 | 30842 ft | 430 kts | 288° |
| 2026-05-06 18:52 | -37.20362 | 143.29320 | 31211 ft | 430 kts | 286° |
| 2026-05-06 18:53 | -37.19300 | 143.25808 | 31619 ft | 431 kts | 288° |
| 2026-05-06 18:53 | -37.18190 | 143.22323 | 32239 ft | 429 kts | 289° |
| 2026-05-06 18:53 | -37.17088 | 143.18916 | 32767 ft | 425 kts | 287° |
| 2026-05-06 18:53 | -37.16053 | 143.15419 | 33156 ft | 426 kts | 287° |
| 2026-05-06 18:54 | -37.14995 | 143.11949 | 33499 ft | 427 kts | 287° |
| 2026-05-06 18:54 | -37.13945 | 143.08468 | 33965 ft | 426 kts | 287° |
| 2026-05-06 18:54 | -37.12945 | 143.05014 | 34521 ft | 421 kts | 286° |
| 2026-05-06 18:54 | -37.11902 | 143.01580 | 34830 ft | 421 kts | 288° |
| 2026-05-06 18:55 | -37.10847 | 142.98158 | 35049 ft | 421 kts | 288° |
| 2026-05-06 18:55 | -37.09751 | 142.94733 | 35295 ft | 426 kts | 289° |
| 2026-05-06 18:55 | -37.08687 | 142.91289 | 35731 ft | 421 kts | 286° |
| 2026-05-06 18:55 | -37.07717 | 142.87839 | 35990 ft | 419 kts | 287° |
| 2026-05-06 18:56 | -37.06639 | 142.84435 | 36112 ft | 418 kts | 289° |
| 2026-05-06 18:56 | -37.04363 | 142.77724 | 36173 ft | 421 kts | 287° |
| 2026-05-06 18:57 | -37.02254 | 142.70846 | 36169 ft | 423 kts | 287° |
| 2026-05-06 18:57 | -37.00249 | 142.63892 | 36178 ft | 430 kts | 288° |
| 2026-05-06 18:58 | -36.98200 | 142.56882 | 36185 ft | 425 kts | 287° |
| 2026-05-06 18:58 | -36.96597 | 142.51790 | 36185 ft | 420 kts | 289° |
| 2026-05-06 18:59 | -36.94484 | 142.45019 | 36165 ft | 417 kts | 288° |
| 2026-05-06 18:59 | -36.92229 | 142.38301 | 36207 ft | 421 kts | 289° |
| 2026-05-06 19:00 | -36.90034 | 142.31450 | 36167 ft | 426 kts | 288° |
| 2026-05-06 19:00 | -36.87944 | 142.24566 | 36195 ft | 423 kts | 287° |
| 2026-05-06 19:01 | -36.85788 | 142.17726 | 36197 ft | 429 kts | 287° |
| 2026-05-06 19:01 | -36.83651 | 142.10865 | 36190 ft | 420 kts | 287° |
| 2026-05-06 19:02 | -36.81539 | 142.04095 | 36213 ft | 418 kts | 289° |
| 2026-05-06 19:02 | -36.79286 | 141.97474 | 36217 ft | 414 kts | 288° |
| 2026-05-06 19:03 | -36.77120 | 141.90680 | 36219 ft | 428 kts | 288° |
| 2026-05-06 19:03 | -36.74980 | 141.83786 | 36220 ft | 425 kts | 288° |
| 2026-05-06 19:04 | -36.72826 | 141.77024 | 36228 ft | 417 kts | 288° |
| 2026-05-06 19:04 | -36.70701 | 141.70254 | 36225 ft | 419 kts | 287° |
| 2026-05-06 19:05 | -36.68548 | 141.63471 | 36213 ft | 421 kts | 289° |
| 2026-05-06 19:05 | -36.66353 | 141.56726 | 36214 ft | 419 kts | 289° |
| 2026-05-06 19:06 | -36.64085 | 141.49992 | 36231 ft | 422 kts | 288° |
| 2026-05-06 19:06 | -36.61928 | 141.43208 | 36230 ft | 423 kts | 289° |
| 2026-05-06 19:07 | -36.59780 | 141.36489 | 36227 ft | 420 kts | 288° |
| 2026-05-06 19:07 | -36.57579 | 141.29727 | 36242 ft | 422 kts | 288° |
| 2026-05-06 19:08 | -36.55346 | 141.22941 | 36248 ft | 424 kts | 288° |
| 2026-05-06 19:08 | -36.53107 | 141.16119 | 36251 ft | 427 kts | 288° |
| 2026-05-06 19:09 | -36.50869 | 141.09292 | 36248 ft | 424 kts | 288° |
| 2026-05-06 19:09 | -36.48662 | 141.02571 | 36257 ft | 422 kts | 288° |
| 2026-05-06 19:10 | -36.46444 | 140.95826 | 36266 ft | 421 kts | 288° |
| 2026-05-06 19:10 | -36.44224 | 140.89088 | 36268 ft | 421 kts | 288° |
| 2026-05-06 19:11 | -36.42002 | 140.82359 | 36277 ft | 421 kts | 288° |
| 2026-05-06 19:11 | -36.39747 | 140.75629 | 36280 ft | 424 kts | 291° |
| 2026-05-06 19:11 | -36.38287 | 140.72412 | 36079 ft | 434 kts | 301° |
| 2026-05-06 19:12 | -36.36452 | 140.69431 | 35801 ft | 433 kts | 304° |
| 2026-05-06 19:12 | -36.34573 | 140.66529 | 35357 ft | 429 kts | 304° |
| 2026-05-06 19:12 | -36.32700 | 140.63660 | 34968 ft | 425 kts | 304° |
| 2026-05-06 19:12 | -36.30852 | 140.60808 | 34573 ft | 422 kts | 303° |
| 2026-05-06 19:13 | -36.29031 | 140.57976 | 34178 ft | 418 kts | 303° |
| 2026-05-06 19:13 | -36.27232 | 140.55158 | 33776 ft | 416 kts | 303° |
| 2026-05-06 19:13 | -36.25446 | 140.52352 | 33376 ft | 413 kts | 303° |